Time;durP1;ratioP1;P1;durP2;ratioP2;P2;SDS_P1;SDS_P2;PMS_P1;PMS_P2;Temp;Humidity;BMP_temperature;BMP_pressure;BME280_temperature;BME280_humidity;BME280_pressure;Samples;Min_cycle;Max_cycle;Signal;HPM_P1;HPM_P2
2021/01/01 00:00:30;;;;;;;4.50;4.10;;;20.20;45.30;;;;;;5058534;28;21256;-67
2021/01/01 00:02:59;;;;;;;5.00;4.60;;;20.10;45.30;;;;;;5056246;28;20486;-67
2021/01/01 00:05:26;;;;;;;4.67;4.37;;;20.20;45.30;;;;;;5055098;28;20500;-67
2021/01/01 00:07:53;;;;;;;5.10;4.70;;;20.10;45.30;;;;;;5057856;28;20489;-67
2021/01/01 00:10:19;;;;;;;4.63;4.30;;;20.10;45.30;;;;;;5039755;28;20470;-67
2021/01/01 00:12:45;;;;;;;5.00;4.43;;;20.10;45.40;;;;;;5052756;28;20488;-67
2021/01/01 00:15:13;;;;;;;4.57;4.00;;;20.10;45.40;;;;;;5060513;28;20494;-67
2021/01/01 00:17:39;;;;;;;3.97;3.67;;;20.10;45.50;;;;;;5055437;28;20498;-66
2021/01/01 00:20:06;;;;;;;4.20;3.90;;;20.10;45.70;;;;;;5056768;28;20497;-67
2021/01/01 00:22:33;;;;;;;3.77;3.47;;;20.10;45.60;;;;;;5054468;28;20485;-67
2021/01/01 00:25:00;;;;;;;4.30;3.63;;;20.10;45.60;;;;;;5056330;28;21267;-67
2021/01/01 00:27:28;;;;;;;3.60;3.40;;;20.10;45.70;;;;;;5051474;28;20856;-66
2021/01/01 00:29:54;;;;;;;4.57;4.17;;;20.10;45.50;;;;;;5056949;28;20491;-67
2021/01/01 00:32:20;;;;;;;4.17;3.87;;;20.10;45.50;;;;;;5053406;28;20477;-67
2021/01/01 00:34:46;;;;;;;3.63;3.33;;;20.10;45.50;;;;;;5048472;28;21222;-67
2021/01/01 00:37:12;;;;;;;4.23;3.83;;;20.10;45.70;;;;;;5066510;28;20485;-67
2021/01/01 00:39:39;;;;;;;5.10;4.70;;;20.10;45.70;;;;;;5056327;28;20478;-67
2021/01/01 00:42:06;;;;;;;4.30;4.00;;;20.10;45.70;;;;;;5053145;28;20492;-67
2021/01/01 00:44:33;;;;;;;4.37;4.00;;;20.00;45.60;;;;;;5056994;28;20478;-67
2021/01/01 00:46:59;;;;;;;4.27;4.00;;;20.00;45.80;;;;;;5052802;28;20522;-67
2021/01/01 00:49:25;;;;;;;8.50;4.33;;;20.00;45.90;;;;;;5057301;28;20493;-66
2021/01/01 00:51:51;;;;;;;3.30;3.10;;;20.00;45.60;;;;;;5052345;28;20481;-67
2021/01/01 00:54:17;;;;;;;4.07;3.63;;;20.00;45.60;;;;;;5041391;28;20485;-67
2021/01/01 00:56:44;;;;;;;3.83;3.53;;;20.00;45.70;;;;;;5055284;28;20461;-68
2021/01/01 00:59:10;;;;;;;3.43;3.23;;;20.00;45.60;;;;;;5056846;28;20911;-67
2021/01/01 01:01:36;;;;;;;3.33;3.13;;;20.00;45.50;;;;;;5056080;28;21194;-66
2021/01/01 01:04:03;;;;;;;5.63;4.10;;;20.00;45.60;;;;;;5055181;28;20485;-67
2021/01/01 01:06:29;;;;;;;3.47;3.27;;;20.00;45.60;;;;;;5046465;28;20478;-66
2021/01/01 01:08:56;;;;;;;3.87;3.63;;;20.00;45.60;;;;;;5064992;28;20505;-68
2021/01/01 01:11:22;;;;;;;4.20;3.83;;;20.00;45.70;;;;;;5058654;28;20490;-67
2021/01/01 01:13:50;;;;;;;3.03;2.83;;;20.00;45.80;;;;;;5031071;28;20479;-67
2021/01/01 01:16:20;;;;;;;3.40;3.20;;;20.00;45.90;;;;;;5060645;28;21279;-66
2021/01/01 01:18:46;;;;;;;5.87;3.83;;;20.00;45.80;;;;;;5057805;28;20478;-66
2021/01/01 01:21:12;;;;;;;3.50;3.30;;;20.00;45.80;;;;;;5057205;28;20558;-67
2021/01/01 01:23:39;;;;;;;2.87;2.67;;;20.00;45.90;;;;;;5042101;28;20490;-67
2021/01/01 01:26:05;;;;;;;3.20;3.00;;;19.90;45.90;;;;;;5052408;28;20485;-67
2021/01/01 01:28:31;;;;;;;3.00;2.80;;;19.90;45.80;;;;;;5060310;28;20496;-67
2021/01/01 01:30:58;;;;;;;3.60;3.40;;;19.80;45.80;;;;;;5059368;28;20490;-66
2021/01/01 01:33:24;;;;;;;3.30;3.00;;;19.80;46.00;;;;;;5057101;28;20497;-67
2021/01/01 01:35:51;;;;;;;3.20;3.00;;;19.90;46.10;;;;;;5056396;28;20495;-67
2021/01/01 01:38:17;;;;;;;3.83;3.63;;;19.80;45.90;;;;;;5058297;28;20492;-67
2021/01/01 01:40:43;;;;;;;3.17;3.07;;;19.80;46.10;;;;;;5040423;28;20481;-67
2021/01/01 01:43:09;;;;;;;3.30;3.10;;;19.90;46.00;;;;;;5045782;28;20486;-67
2021/01/01 01:45:35;;;;;;;3.67;3.47;;;19.90;46.00;;;;;;5042764;28;20487;-67
2021/01/01 01:48:02;;;;;;;2.70;2.60;;;19.90;46.00;;;;;;5058689;28;20493;-67
2021/01/01 01:50:28;;;;;;;3.97;3.67;;;19.90;46.00;;;;;;5059281;28;20474;-67
2021/01/01 01:52:54;;;;;;;3.77;3.57;;;19.90;45.90;;;;;;5058527;28;20482;-67
2021/01/01 01:55:21;;;;;;;3.67;3.30;;;19.90;46.10;;;;;;5057953;28;20469;-66
2021/01/01 01:57:47;;;;;;;4.13;3.80;;;19.80;45.80;;;;;;5059037;28;20476;-67
2021/01/01 02:00:37;;;;;;;3.90;3.67;;;19.80;45.80;;;;;;5057921;28;20539;-66
2021/01/01 02:03:04;;;;;;;3.77;3.43;;;19.80;46.20;;;;;;5056940;28;20508;-68
2021/01/01 02:05:31;;;;;;;4.13;3.83;;;19.80;45.90;;;;;;5058293;28;20482;-66
2021/01/01 02:07:57;;;;;;;3.17;3.00;;;19.90;45.90;;;;;;5058728;28;20489;-66
2021/01/01 02:10:23;;;;;;;3.40;3.20;;;19.80;46.00;;;;;;5059205;28;20488;-66
2021/01/01 02:12:49;;;;;;;3.50;3.30;;;19.80;46.00;;;;;;5059158;28;20472;-66
2021/01/01 02:15:15;;;;;;;3.57;3.37;;;19.80;46.20;;;;;;5056797;28;20490;-67
2021/01/01 02:17:41;;;;;;;3.00;2.90;;;19.80;46.40;;;;;;5056851;28;20486;-67
2021/01/01 02:20:10;;;;;;;2.80;2.70;;;19.70;46.40;;;;;;5058994;28;20490;-67
2021/01/01 02:22:37;;;;;;;4.00;3.60;;;19.80;46.50;;;;;;5056963;28;21490;-67
2021/01/01 02:25:03;;;;;;;2.90;2.80;;;19.80;46.40;;;;;;5059107;28;20504;-67
2021/01/01 02:27:29;;;;;;;2.77;2.67;;;19.90;46.60;;;;;;5057465;28;20481;-67
2021/01/01 02:29:56;;;;;;;3.37;3.17;;;19.90;46.50;;;;;;5057908;28;20482;-67
2021/01/01 02:32:22;;;;;;;3.37;3.10;;;19.90;46.50;;;;;;5055556;28;20478;-67
2021/01/01 02:34:48;;;;;;;3.87;3.20;;;19.90;46.50;;;;;;5058044;28;21112;-66
2021/01/01 02:37:14;;;;;;;3.47;3.27;;;19.90;46.60;;;;;;5057914;28;20473;-67
2021/01/01 02:39:42;;;;;;;2.93;2.83;;;20.00;47.20;;;;;;5057619;28;20485;-66
2021/01/01 02:42:08;;;;;;;3.90;3.67;;;19.90;46.20;;;;;;5062352;28;20497;-67
2021/01/01 02:44:34;;;;;;;3.93;3.63;;;19.90;46.00;;;;;;5062176;28;20490;-66
2021/01/01 02:47:01;;;;;;;3.07;2.87;;;19.90;46.10;;;;;;5058861;28;20490;-67
2021/01/01 02:49:27;;;;;;;3.03;2.93;;;19.90;46.20;;;;;;5057870;28;20474;-67
2021/01/01 02:51:53;;;;;;;3.40;3.17;;;19.80;46.10;;;;;;5057942;28;20494;-67
2021/01/01 02:54:19;;;;;;;3.13;3.03;;;19.80;46.10;;;;;;5058426;28;21042;-67
2021/01/01 02:56:46;;;;;;;3.47;3.30;;;19.80;46.90;;;;;;5057540;28;20843;-68
2021/01/01 02:59:12;;;;;;;4.30;3.23;;;19.80;46.00;;;;;;5058481;28;20535;-66
2021/01/01 03:01:39;;;;;;;2.80;2.70;;;19.80;46.00;;;;;;5056603;28;20486;-68
2021/01/01 03:04:05;;;;;;;3.30;3.10;;;19.80;46.10;;;;;;5056748;28;20490;-67
2021/01/01 03:06:31;;;;;;;3.70;3.50;;;19.80;46.20;;;;;;5059786;28;20485;-67
2021/01/01 03:08:57;;;;;;;3.53;3.30;;;19.80;46.20;;;;;;5057206;28;20485;-66
2021/01/01 03:11:23;;;;;;;3.67;3.47;;;19.80;46.10;;;;;;5045616;28;20481;-67
2021/01/01 03:13:50;;;;;;;4.00;3.70;;;19.80;46.00;;;;;;5061497;28;20987;-66
2021/01/01 03:16:16;;;;;;;3.47;3.37;;;19.90;45.90;;;;;;5057543;28;20486;-67
2021/01/01 03:18:43;;;;;;;3.83;3.63;;;19.80;45.90;;;;;;5056977;28;20489;-67
2021/01/01 03:21:09;;;;;;;3.83;3.57;;;19.90;46.10;;;;;;5056079;28;20490;-67
2021/01/01 03:23:35;;;;;;;4.20;3.83;;;19.80;46.00;;;;;;5057694;28;20493;-67
2021/01/01 03:26:01;;;;;;;4.17;3.77;;;19.90;46.00;;;;;;5051303;28;20504;-67
2021/01/01 03:28:27;;;;;;;3.77;3.57;;;19.80;46.00;;;;;;5066417;28;20478;-67
2021/01/01 03:30:54;;;;;;;3.37;3.10;;;19.90;46.10;;;;;;5058379;28;20497;-67
2021/01/01 03:33:20;;;;;;;3.30;3.10;;;19.80;45.90;;;;;;5045816;28;20477;-66
2021/01/01 03:35:47;;;;;;;3.50;3.27;;;19.80;45.90;;;;;;5056797;28;20485;-67
2021/01/01 03:38:13;;;;;;;3.43;3.23;;;19.80;45.90;;;;;;5056540;28;20490;-67
2021/01/01 03:40:39;;;;;;;3.90;3.70;;;19.80;45.90;;;;;;5057761;28;20905;-67
2021/01/01 03:43:05;;;;;;;4.30;3.90;;;19.80;45.90;;;;;;5057352;28;20524;-67
2021/01/01 03:45:31;;;;;;;3.63;3.43;;;19.80;45.80;;;;;;5056861;28;20491;-67
2021/01/01 03:47:58;;;;;;;3.90;3.60;;;19.80;46.00;;;;;;5056527;28;20489;-68
2021/01/01 03:50:24;;;;;;;3.93;3.60;;;19.80;46.20;;;;;;5057641;28;20477;-68
2021/01/01 03:52:50;;;;;;;3.30;3.00;;;19.80;46.20;;;;;;5044464;28;20474;-67
2021/01/01 03:55:17;;;;;;;3.40;3.20;;;19.80;46.20;;;;;;5057662;28;21171;-67
2021/01/01 03:57:43;;;;;;;4.87;4.47;;;19.80;46.50;;;;;;5055464;28;20478;-68
2021/01/01 04:00:10;;;;;;;4.00;3.63;;;19.80;46.30;;;;;;5055297;28;20485;-68
2021/01/01 04:02:36;;;;;;;3.40;3.20;;;19.80;45.90;;;;;;5057324;28;20469;-68
2021/01/01 04:05:04;;;;;;;4.40;4.00;;;19.80;46.00;;;;;;5057005;28;20485;-68
2021/01/01 04:07:30;;;;;;;6.77;3.33;;;19.80;45.90;;;;;;5053353;28;20491;-68
2021/01/01 04:09:56;;;;;;;3.67;3.37;;;19.90;45.70;;;;;;5055475;28;20490;-69
2021/01/01 04:12:23;;;;;;;5.30;3.93;;;19.90;45.60;;;;;;5057785;28;20473;-68
2021/01/01 04:14:49;;;;;;;3.87;3.30;;;20.00;45.60;;;;;;5056367;28;20489;-68
2021/01/01 04:17:15;;;;;;;3.67;3.47;;;20.00;45.40;;;;;;5056352;28;20592;-68
2021/01/01 04:19:41;;;;;;;4.20;3.87;;;20.10;45.20;;;;;;5057836;28;20519;-67
2021/01/01 04:22:09;;;;;;;4.57;3.80;;;20.20;45.20;;;;;;5053003;28;20485;-67
2021/01/01 04:24:35;;;;;;;4.10;3.77;;;20.20;45.10;;;;;;5057338;28;20481;-67
2021/01/01 04:27:01;;;;;;;4.00;3.60;;;20.30;45.00;;;;;;5055720;28;20491;-68
2021/01/01 04:29:27;;;;;;;3.13;3.03;;;20.30;45.10;;;;;;5057038;28;20481;-68
2021/01/01 04:31:53;;;;;;;4.67;4.37;;;20.30;44.90;;;;;;5056715;28;20486;-67
2021/01/01 04:34:19;;;;;;;4.10;3.60;;;20.30;44.80;;;;;;5056942;28;20614;-67
2021/01/01 04:36:46;;;;;;;4.00;3.70;;;20.30;44.90;;;;;;5058278;28;20469;-68
2021/01/01 04:39:13;;;;;;;4.17;3.77;;;20.30;44.90;;;;;;5057205;28;21053;-67
2021/01/01 04:41:40;;;;;;;3.60;3.40;;;20.30;44.90;;;;;;5056248;28;20475;-66
2021/01/01 04:44:06;;;;;;;4.27;3.90;;;20.30;44.90;;;;;;5056859;28;20513;-68
2021/01/01 04:46:33;;;;;;;4.43;4.07;;;20.20;44.80;;;;;;5057957;28;21024;-67
2021/01/01 04:49:00;;;;;;;4.87;4.37;;;20.20;45.00;;;;;;5058363;28;20520;-67
2021/01/01 04:51:26;;;;;;;4.13;3.83;;;20.20;45.00;;;;;;5067497;28;21500;-67
2021/01/01 04:53:52;;;;;;;4.80;4.00;;;20.20;45.00;;;;;;5057397;28;20482;-67
2021/01/01 04:56:19;;;;;;;4.23;3.93;;;20.20;45.00;;;;;;5059892;28;21136;-67
2021/01/01 04:58:45;;;;;;;4.93;4.53;;;20.20;45.00;;;;;;5054172;28;20473;-67
2021/01/01 05:01:11;;;;;;;5.00;4.50;;;20.10;45.00;;;;;;5048383;28;20493;-67
2021/01/01 05:03:37;;;;;;;3.93;3.70;;;20.10;45.00;;;;;;5053042;28;20997;-67
2021/01/01 05:06:04;;;;;;;4.90;4.40;;;20.10;45.00;;;;;;5059466;28;20837;-67
2021/01/01 05:08:30;;;;;;;4.03;3.57;;;20.10;45.00;;;;;;5058946;28;20484;-67
2021/01/01 05:10:56;;;;;;;5.50;3.97;;;20.10;45.80;;;;;;5059069;28;20507;-68
2021/01/01 05:13:23;;;;;;;3.90;3.60;;;20.20;45.10;;;;;;5058467;28;20481;-68
2021/01/01 05:15:49;;;;;;;4.83;4.10;;;20.10;45.00;;;;;;5059696;28;20851;-67
2021/01/01 05:18:16;;;;;;;4.27;3.97;;;20.20;45.30;;;;;;5058643;28;20481;-67
2021/01/01 05:20:43;;;;;;;4.10;3.83;;;20.20;45.20;;;;;;5060219;28;20485;-67
2021/01/01 05:23:18;;;;;;;4.20;3.80;;;20.20;45.10;;;;;;5058752;28;20497;-67
2021/01/01 05:25:44;;;;;;;5.30;4.63;;;20.20;45.10;;;;;;5057603;28;20469;-67
2021/01/01 05:28:12;;;;;;;4.77;4.37;;;20.20;45.10;;;;;;5058547;28;20477;-67
2021/01/01 05:30:39;;;;;;;6.33;5.00;;;20.20;45.10;;;;;;5060359;28;21536;-67
2021/01/01 05:33:07;;;;;;;6.20;3.90;;;20.20;45.00;;;;;;5059075;28;20845;-68
2021/01/01 05:35:33;;;;;;;7.13;5.37;;;20.30;45.00;;;;;;5058242;28;20490;-67
2021/01/01 05:38:15;;;;;;;4.33;3.90;;;20.30;45.00;;;;;;5059328;28;20997;-67
2021/01/01 05:40:41;;;;;;;4.33;4.03;;;20.30;45.00;;;;;;5058563;28;20489;-67
2021/01/01 05:43:17;;;;;;;7.90;5.40;;;20.30;45.00;;;;;;5057892;28;20497;-67
2021/01/01 05:45:44;;;;;;;5.17;4.67;;;20.30;44.90;;;;;;5046129;28;20473;-67
2021/01/01 05:48:11;;;;;;;4.70;4.40;;;20.30;44.90;;;;;;5058694;28;20481;-67
2021/01/01 05:50:37;;;;;;;4.30;3.90;;;20.30;45.00;;;;;;5055605;28;20495;-67
2021/01/01 05:53:13;;;;;;;8.23;5.07;;;20.30;44.80;;;;;;5066297;28;21115;-67
2021/01/01 05:55:39;;;;;;;5.10;4.70;;;20.30;44.80;;;;;;5049988;28;20503;-66
2021/01/01 05:58:18;;;;;;;5.13;4.27;;;20.30;44.80;;;;;;5055815;28;20478;-66
2021/01/01 06:00:46;;;;;;;4.70;4.50;;;20.30;44.70;;;;;;5049606;28;20584;-67
2021/01/01 06:03:13;;;;;;;4.83;4.43;;;20.30;44.80;;;;;;5056766;28;20551;-68
2021/01/01 06:05:40;;;;;;;4.63;4.33;;;20.30;44.80;;;;;;5058963;28;20482;-68
2021/01/01 06:08:06;;;;;;;4.00;3.70;;;20.30;44.90;;;;;;5059832;28;20488;-67
2021/01/01 06:10:32;;;;;;;4.37;3.97;;;20.40;44.80;;;;;;5063633;28;20492;-67
2021/01/01 06:12:58;;;;;;;6.00;4.80;;;20.40;44.70;;;;;;5064964;28;20486;-67
2021/01/01 06:15:24;;;;;;;4.97;4.67;;;20.50;44.70;;;;;;5062786;28;20470;-67
2021/01/01 06:17:52;;;;;;;4.67;4.27;;;20.50;44.70;;;;;;5061918;28;20494;-68
2021/01/01 06:20:18;;;;;;;4.27;4.00;;;20.50;44.70;;;;;;5059807;28;20478;-67
2021/01/01 06:22:58;;;;;;;4.47;4.17;;;20.50;45.50;;;;;;5058119;28;20477;-67
2021/01/01 06:25:24;;;;;;;4.93;4.50;;;20.50;44.70;;;;;;5046843;28;20472;-67
2021/01/01 06:27:51;;;;;;;5.83;5.23;;;20.40;44.60;;;;;;5058520;28;20529;-67
2021/01/01 06:30:18;;;;;;;4.50;4.10;;;20.40;44.60;;;;;;5057955;28;20489;-67
2021/01/01 06:32:44;;;;;;;6.10;5.50;;;20.40;44.60;;;;;;5057976;28;21103;-67
2021/01/01 06:35:15;;;;;;;5.80;5.30;;;20.40;44.70;;;;;;5059015;28;20501;-67
2021/01/01 06:37:41;;;;;;;5.17;4.77;;;20.40;44.70;;;;;;5057518;28;20503;-67
2021/01/01 06:40:23;;;;;;;5.17;4.77;;;20.40;44.70;;;;;;5055911;28;20486;-67
2021/01/01 06:42:51;;;;;;;7.03;5.30;;;20.40;44.60;;;;;;5044197;28;20473;-68
2021/01/01 06:45:35;;;;;;;5.50;4.87;;;20.50;44.60;;;;;;5064025;28;20484;-67
2021/01/01 06:48:01;;;;;;;5.03;4.50;;;20.50;45.40;;;;;;5052481;28;20484;-67
2021/01/01 06:50:29;;;;;;;4.53;4.10;;;20.50;44.70;;;;;;5063555;28;20486;-67
2021/01/01 06:53:01;;;;;;;5.17;4.30;;;20.50;44.60;;;;;;5056400;28;20543;-68
2021/01/01 06:55:30;;;;;;;5.10;4.47;;;20.50;44.60;;;;;;5051379;28;20572;-67
2021/01/01 06:57:56;;;;;;;4.87;4.47;;;20.50;44.70;;;;;;5057410;28;20612;-67
2021/01/01 07:01:05;;;;;;;4.00;3.77;;;20.40;44.50;;;;;;5058575;28;20470;-66
2021/01/01 07:03:36;;;;;;;5.03;4.60;;;20.40;44.60;;;;;;5055261;28;20580;-68
2021/01/01 07:06:37;;;;;;;6.50;5.07;;;20.40;44.60;;;;;;5056699;28;20536;-67
2021/01/01 07:09:05;;;;;;;6.10;5.50;;;20.40;44.60;;;;;;5048881;28;20484;-67
2021/01/01 07:11:36;;;;;;;5.27;4.83;;;20.40;44.70;;;;;;5055497;28;20485;-67
2021/01/01 07:14:05;;;;;;;5.00;4.60;;;20.30;44.60;;;;;;5057781;28;20501;-67
2021/01/01 07:16:32;;;;;;;5.57;5.03;;;20.30;44.70;;;;;;5058170;28;20893;-67
2021/01/01 07:18:58;;;;;;;5.13;4.73;;;20.30;44.70;;;;;;5055933;28;20992;-67
2021/01/01 07:21:25;;;;;;;6.23;5.03;;;20.40;44.80;;;;;;5058097;28;21934;-67
2021/01/01 07:23:52;;;;;;;4.27;3.97;;;20.30;44.60;;;;;;5031362;28;20557;-67
2021/01/01 07:26:18;;;;;;;4.93;4.50;;;20.30;44.60;;;;;;5037895;28;20475;-67
2021/01/01 07:28:45;;;;;;;5.23;4.57;;;20.30;44.60;;;;;;5044078;28;20481;-67
2021/01/01 07:31:13;;;;;;;5.43;5.03;;;20.30;44.60;;;;;;5048091;28;20547;-67
2021/01/01 07:33:39;;;;;;;7.00;5.73;;;20.30;44.60;;;;;;5054256;28;20482;-67
2021/01/01 07:36:06;;;;;;;5.00;4.50;;;20.30;44.60;;;;;;5053401;28;20509;-67
2021/01/01 07:38:33;;;;;;;6.60;6.00;;;20.30;44.70;;;;;;5057411;28;20482;-68
2021/01/01 07:41:00;;;;;;;5.03;4.63;;;20.30;44.60;;;;;;5054154;28;20482;-67
2021/01/01 07:43:26;;;;;;;5.13;4.33;;;20.40;44.70;;;;;;5056228;28;21140;-68
2021/01/01 07:45:54;;;;;;;4.90;4.37;;;20.40;44.80;;;;;;5057814;28;20482;-67
2021/01/01 07:48:20;;;;;;;5.03;4.20;;;20.30;44.70;;;;;;5055243;28;20481;-68
2021/01/01 07:50:46;;;;;;;4.97;4.67;;;20.30;44.60;;;;;;5057260;28;20489;-67
2021/01/01 07:53:13;;;;;;;5.00;4.60;;;20.30;44.70;;;;;;5056834;28;21023;-67
2021/01/01 07:55:40;;;;;;;5.10;4.47;;;20.40;44.70;;;;;;5055809;28;20481;-67
2021/01/01 07:58:08;;;;;;;4.90;4.50;;;20.30;44.60;;;;;;5056988;28;20482;-67
2021/01/01 08:00:35;;;;;;;5.67;5.17;;;20.30;44.60;;;;;;5056725;28;20477;-67
2021/01/01 08:03:01;;;;;;;4.87;4.47;;;20.30;44.60;;;;;;5056046;28;20478;-67
2021/01/01 08:05:27;;;;;;;5.57;5.17;;;20.30;44.70;;;;;;5057008;28;20469;-67
2021/01/01 08:07:53;;;;;;;5.23;4.83;;;20.30;44.60;;;;;;5055186;28;20485;-67
2021/01/01 08:10:31;;;;;;;5.40;4.53;;;20.30;44.60;;;;;;5051148;28;20477;-68
2021/01/01 08:12:57;;;;;;;6.07;5.60;;;20.30;44.60;;;;;;5044943;28;20478;-66
2021/01/01 08:15:27;;;;;;;5.40;4.90;;;20.30;44.70;;;;;;5052358;28;20473;-67
2021/01/01 08:17:53;;;;;;;4.93;4.57;;;20.30;44.80;;;;;;5042928;28;20596;-68
2021/01/01 08:20:19;;;;;;;5.70;5.17;;;20.30;44.80;;;;;;5057554;28;20488;-67
2021/01/01 08:22:46;;;;;;;5.33;4.93;;;20.30;44.80;;;;;;5059868;28;20531;-68
2021/01/01 08:25:12;;;;;;;4.90;4.43;;;20.30;44.80;;;;;;5060138;28;20492;-68
2021/01/01 08:27:38;;;;;;;5.13;4.67;;;20.30;44.80;;;;;;5058867;28;21001;-67
2021/01/01 08:30:06;;;;;;;5.03;4.53;;;20.30;44.80;;;;;;5060263;28;20515;-67
2021/01/01 08:32:33;;;;;;;5.53;5.03;;;20.30;44.80;;;;;;5061031;28;20482;-67
2021/01/01 08:34:59;;;;;;;4.70;4.30;;;20.30;44.90;;;;;;5059127;28;20493;-68
2021/01/01 08:37:27;;;;;;;5.07;4.67;;;20.30;44.90;;;;;;5059436;28;20512;-68
2021/01/01 08:40:03;;;;;;;4.60;4.20;;;20.20;45.00;;;;;;5059262;28;20509;-67
2021/01/01 08:42:33;;;;;;;5.23;4.73;;;20.30;45.00;;;;;;5058221;28;20888;-67
2021/01/01 08:44:59;;;;;;;5.73;5.07;;;20.30;45.20;;;;;;5060809;28;20482;-68
2021/01/01 08:47:39;;;;;;;4.33;3.93;;;20.30;45.00;;;;;;5052724;28;20476;-69
2021/01/01 08:50:17;;;;;;;4.93;4.23;;;20.20;44.90;;;;;;5064280;28;20542;-67
2021/01/01 08:52:43;;;;;;;5.60;4.80;;;20.20;44.90;;;;;;5055839;28;20591;-67
2021/01/01 08:55:10;;;;;;;5.30;4.80;;;20.20;45.00;;;;;;5069882;28;21375;-68
2021/01/01 08:57:36;;;;;;;7.37;4.60;;;20.20;45.10;;;;;;5054660;28;20537;-67
2021/01/01 09:00:03;;;;;;;5.70;5.20;;;20.10;45.00;;;;;;5062817;28;20477;-67
2021/01/01 09:02:29;;;;;;;5.33;4.83;;;20.10;45.10;;;;;;5049092;28;20520;-68
2021/01/01 09:04:58;;;;;;;4.83;4.50;;;20.10;45.20;;;;;;5067096;28;20512;-67
2021/01/01 09:07:24;;;;;;;7.17;4.40;;;20.10;45.20;;;;;;5051674;28;20492;-67
2021/01/01 09:09:50;;;;;;;6.50;5.20;;;20.10;45.20;;;;;;5060305;28;20905;-67
2021/01/01 09:12:18;;;;;;;4.50;4.10;;;20.10;45.20;;;;;;5057910;28;20508;-67
2021/01/01 09:14:49;;;;;;;5.20;4.70;;;20.10;45.10;;;;;;5056885;28;20485;-68
2021/01/01 09:17:16;;;;;;;4.37;4.07;;;20.10;45.20;;;;;;5059531;28;21008;-67
2021/01/01 09:19:42;;;;;;;4.63;4.13;;;20.10;45.20;;;;;;5060532;28;20486;-67
2021/01/01 09:22:17;;;;;;;4.87;4.47;;;20.10;45.30;;;;;;5057223;28;20485;-67
2021/01/01 09:24:43;;;;;;;6.07;4.30;;;20.10;45.20;;;;;;5057927;28;20553;-67
2021/01/01 09:27:10;;;;;;;4.40;4.00;;;20.10;45.30;;;;;;5056548;28;20912;-67
2021/01/01 09:29:36;;;;;;;4.33;3.93;;;20.10;45.20;;;;;;5059128;28;20537;-67
2021/01/01 09:32:05;;;;;;;4.60;4.30;;;20.10;45.20;;;;;;5059390;28;20485;-67
2021/01/01 09:34:31;;;;;;;4.80;4.40;;;20.10;45.20;;;;;;5059275;28;20517;-67
2021/01/01 09:36:58;;;;;;;6.30;4.60;;;20.10;45.10;;;;;;5050487;28;20489;-67
2021/01/01 09:39:24;;;;;;;5.40;4.80;;;20.10;45.20;;;;;;5078805;28;20489;-66
2021/01/01 09:41:51;;;;;;;5.40;4.90;;;20.00;45.20;;;;;;5064149;28;20486;-68
2021/01/01 09:44:17;;;;;;;5.87;5.10;;;20.00;45.20;;;;;;5056280;28;20477;-67
2021/01/01 09:46:43;;;;;;;5.70;4.90;;;20.00;45.10;;;;;;5060030;28;20489;-68
2021/01/01 09:49:09;;;;;;;5.00;4.70;;;20.00;45.10;;;;;;5058786;28;20497;-67
2021/01/01 09:51:35;;;;;;;6.30;5.37;;;20.00;46.00;;;;;;5048985;28;20481;-67
2021/01/01 09:54:02;;;;;;;5.00;4.60;;;20.00;45.10;;;;;;5065501;28;20498;-67
2021/01/01 09:56:35;;;;;;;6.80;4.97;;;20.00;45.10;;;;;;5058263;28;20482;-67
2021/01/01 09:59:01;;;;;;;4.73;4.23;;;20.10;45.10;;;;;;5057694;28;20966;-67
2021/01/01 10:01:28;;;;;;;5.20;4.63;;;20.00;45.00;;;;;;5057997;28;20485;-67
2021/01/01 10:03:54;;;;;;;5.50;4.63;;;20.00;45.00;;;;;;5056414;28;20517;-67
2021/01/01 10:06:21;;;;;;;5.93;5.27;;;20.10;45.10;;;;;;5057303;28;20474;-66
2021/01/01 10:08:47;;;;;;;5.13;4.63;;;20.10;45.10;;;;;;5058977;28;20522;-67
2021/01/01 10:11:13;;;;;;;5.47;4.97;;;20.10;45.10;;;;;;5055407;28;20493;-67
2021/01/01 10:13:40;;;;;;;5.23;4.70;;;20.10;45.10;;;;;;5057237;28;20516;-67
2021/01/01 10:16:07;;;;;;;5.00;4.60;;;20.10;45.20;;;;;;5058514;28;20486;-67
2021/01/01 10:18:33;;;;;;;4.70;4.40;;;20.10;45.40;;;;;;5058833;28;20510;-67
2021/01/01 10:21:00;;;;;;;5.57;4.87;;;20.10;45.30;;;;;;5058298;28;20482;-67
2021/01/01 10:23:26;;;;;;;5.13;4.73;;;20.10;45.30;;;;;;5058124;28;20532;-67
2021/01/01 10:25:52;;;;;;;5.90;5.33;;;20.10;45.20;;;;;;5058408;28;21405;-67
2021/01/01 10:28:18;;;;;;;5.27;4.77;;;20.10;45.20;;;;;;5058176;28;20535;-67
2021/01/01 10:30:45;;;;;;;4.87;4.50;;;20.10;45.10;;;;;;5059120;28;21391;-67
2021/01/01 10:33:12;;;;;;;5.70;5.20;;;20.10;45.20;;;;;;5055820;28;20515;-67
2021/01/01 10:35:38;;;;;;;5.57;5.17;;;20.10;45.20;;;;;;5058900;28;20478;-67
2021/01/01 10:38:04;;;;;;;5.83;4.50;;;20.10;45.40;;;;;;5057928;28;20485;-66
2021/01/01 10:40:30;;;;;;;4.90;4.60;;;20.10;45.50;;;;;;5047006;28;21163;-68
2021/01/01 10:42:57;;;;;;;4.83;4.43;;;20.10;45.50;;;;;;5052938;28;20898;-67
2021/01/01 10:45:23;;;;;;;5.13;4.63;;;20.10;45.30;;;;;;5043150;28;20470;-67
2021/01/01 10:47:50;;;;;;;4.30;3.90;;;20.10;45.10;;;;;;5035299;28;20483;-67
2021/01/01 10:50:16;;;;;;;5.43;4.77;;;20.10;45.20;;;;;;5037135;28;21145;-67
2021/01/01 10:52:42;;;;;;;4.60;4.20;;;20.10;45.30;;;;;;5037133;28;20479;-66
2021/01/01 10:55:10;;;;;;;5.10;4.63;;;20.10;45.40;;;;;;5037076;28;20490;-67
2021/01/01 10:57:36;;;;;;;4.60;4.17;;;20.10;45.20;;;;;;5038553;28;20953;-67
2021/01/01 11:00:03;;;;;;;4.40;4.10;;;20.10;45.30;;;;;;5035317;28;20493;-67
2021/01/01 11:02:29;;;;;;;7.33;5.37;;;20.00;45.30;;;;;;5036794;28;20475;-67
2021/01/01 11:04:56;;;;;;;4.90;4.47;;;20.00;45.30;;;;;;5034521;28;20482;-66
2021/01/01 11:07:23;;;;;;;4.93;4.53;;;20.00;45.30;;;;;;5043193;28;20504;-67
2021/01/01 11:09:49;;;;;;;4.93;4.53;;;20.00;45.30;;;;;;5037675;28;20475;-66
2021/01/01 11:12:15;;;;;;;4.97;4.57;;;20.00;45.20;;;;;;5034589;28;20494;-67
2021/01/01 11:15:00;;;;;;;5.17;4.70;;;20.00;45.20;;;;;;5038136;28;20485;-67
2021/01/01 12:21:36;;;;;;;4.30;4.00;;;19.90;45.50;;;;;;5025989;28;20505;-67
2021/01/01 12:24:19;;;;;;;4.23;3.90;;;20.00;45.40;;;;;;5034977;28;20503;-67
2021/01/01 12:26:46;;;;;;;5.63;4.87;;;20.00;45.50;;;;;;5037154;28;20577;-67
2021/01/01 12:29:12;;;;;;;4.60;4.30;;;20.00;45.60;;;;;;5035737;28;20576;-67
2021/01/01 12:31:39;;;;;;;5.07;4.57;;;20.00;45.70;;;;;;5036531;28;20556;-66
2021/01/01 12:34:05;;;;;;;5.73;4.30;;;20.00;45.60;;;;;;5055704;28;20949;-67
2021/01/01 12:36:32;;;;;;;5.73;5.27;;;20.00;45.50;;;;;;5056384;28;20573;-67
2021/01/01 12:38:58;;;;;;;4.60;4.20;;;20.00;45.40;;;;;;5055765;28;20494;-67
2021/01/01 12:41:24;;;;;;;4.53;4.23;;;20.00;45.40;;;;;;5052223;28;20466;-66
2021/01/01 12:43:54;;;;;;;4.27;4.00;;;20.00;46.20;;;;;;5056415;28;20501;-66
2021/01/01 12:46:20;;;;;;;5.30;4.53;;;20.00;45.40;;;;;;5051602;28;21009;-68
2021/01/01 12:48:46;;;;;;;4.40;4.10;;;20.00;45.50;;;;;;5055715;28;20538;-68
2021/01/01 12:51:12;;;;;;;4.50;4.13;;;20.00;45.50;;;;;;5057415;28;20472;-67
2021/01/01 12:53:39;;;;;;;4.10;3.70;;;20.10;45.50;;;;;;5055572;28;20527;-67
2021/01/01 12:56:05;;;;;;;4.33;4.03;;;20.10;45.50;;;;;;5056788;28;21132;-68
2021/01/01 12:58:32;;;;;;;4.20;3.90;;;20.10;45.40;;;;;;5055909;28;20480;-68
2021/01/01 13:00:59;;;;;;;4.40;4.10;;;20.10;45.30;;;;;;5056365;28;20482;-68
2021/01/01 13:03:25;;;;;;;4.77;4.40;;;20.10;45.30;;;;;;5046247;28;21019;-68
2021/01/01 13:05:51;;;;;;;3.93;3.73;;;20.10;45.20;;;;;;5055067;28;20849;-67
2021/01/01 13:08:17;;;;;;;4.33;3.93;;;20.10;45.20;;;;;;5063855;28;20543;-68
2021/01/01 13:10:43;;;;;;;4.10;3.90;;;20.20;45.30;;;;;;5064532;28;20485;-68
2021/01/01 13:13:09;;;;;;;4.90;4.50;;;20.20;45.20;;;;;;5060642;28;20474;-68
2021/01/01 13:15:36;;;;;;;5.10;4.70;;;20.20;45.20;;;;;;5059557;28;20551;-68
2021/01/01 13:18:03;;;;;;;4.37;4.07;;;20.30;45.20;;;;;;5059608;28;21123;-68
2021/01/01 13:20:29;;;;;;;4.77;4.30;;;20.30;45.10;;;;;;5058648;28;20539;-67
2021/01/01 13:22:55;;;;;;;4.40;4.00;;;20.30;45.10;;;;;;5050371;28;20479;-67
2021/01/01 13:25:21;;;;;;;4.03;3.73;;;20.40;45.00;;;;;;5036491;28;20529;-67
2021/01/01 13:27:47;;;;;;;4.93;4.27;;;20.40;45.00;;;;;;5037317;28;20469;-68
2021/01/01 13:30:16;;;;;;;4.50;4.20;;;20.40;45.00;;;;;;5042570;28;20490;-67
2021/01/01 13:32:43;;;;;;;5.00;4.50;;;20.40;45.00;;;;;;5038042;28;20478;-67
2021/01/01 13:35:11;;;;;;;5.13;4.83;;;20.30;44.90;;;;;;5039491;28;20552;-67
2021/01/01 13:37:37;;;;;;;5.13;4.70;;;20.30;45.00;;;;;;5037527;28;20540;-68
2021/01/01 13:40:05;;;;;;;4.27;3.97;;;20.30;45.00;;;;;;5036118;28;20486;-68
2021/01/01 13:42:31;;;;;;;4.67;4.30;;;20.30;45.10;;;;;;5036575;28;20475;-67
2021/01/01 13:44:57;;;;;;;5.20;4.70;;;20.20;45.10;;;;;;5039656;28;21054;-68
2021/01/01 13:47:24;;;;;;;3.93;3.73;;;20.20;45.20;;;;;;5041257;28;21158;-67
2021/01/01 13:49:50;;;;;;;4.70;4.30;;;20.20;45.30;;;;;;5038408;28;20487;-67
2021/01/01 13:52:18;;;;;;;4.63;4.33;;;20.20;45.40;;;;;;5036906;28;20490;-68